Fairchem Charger — V7RD4 — position and weather

sailwx.info

Track history (hours):
 
Tides and Currents Weather Stations Pressure Air Temp Water Temp Dewpoint Dewpoint Depression Visibility Wind Speed Wind Dir Waves Ship Positions

Fairchem Charger

Last reported at 2018-Oct-19 01:17 UTC. Time now 2018-Nov-17 19:53 UTC.
Position N 14°16' W 060°48'.
Warning: this ship's position is 29 days out of date.

Length 146 m; draft 9.8 m.

Type: Ship (hazmat cat B). MMSI: 538003481.

Date/timePositionNaut miles runAvg speedWind from/ knotsBaromVisibWave heightAir tempDewpointWater temp
2018-Oct-19 01:17N 14°16' W 060°48'312.1
2018-Oct-19 01:03N 14°16' W 060°51'112.1
2018-Oct-19 01:00N 14°16' W 060°52'612.0
2018-Oct-19 00:30N 14°15' W 060°58'512.0
2018-Oct-19 00:03N 14°15' W 061°03'112.2
2018-Oct-19 00:00N 14°15' W 061°04'  
2018-Oct-12 02:20N 29°50' W 089°60'310.5
2018-Oct-12 02:00N 29°53' W 089°57'3 5.0
2018-Oct-12 01:27N 29°55' W 089°57'512.3
2018-Oct-12 01:04N 29°57' W 090°02'110.8
2018-Oct-12 01:00N 29°57' W 090°02'5 9.6
2018-Oct-12 00:30N 29°54' W 090°07'4 8.1
2018-Oct-12 00:04N 29°57' W 090°10'113.4
2018-Oct-12 00:01N 29°56' W 090°11'610.8
2018-Oct-11 23:29N 29°58' W 090°17'1 0.0
2018-Oct-10 00:09N 29°58' W 090°16'1 9.9
2018-Oct-10 00:04N 29°58' W 090°15'110.0
2018-Oct-10 00:00N 29°58' W 090°14'4 7.5
2018-Oct-09 23:30N 29°56' W 090°11'3 5.8
2018-Oct-09 23:04N 29°55' W 090°08'111.1
2018-Oct-09 23:01N 29°55' W 090°07'4 8.5
2018-Oct-09 22:30N 29°57' W 090°04'3 7.2
2018-Oct-09 22:03N 29°56' W 089°60'0 8.9
2018-Oct-09 22:00N 29°56' W 089°60'  
Track history (hours):
 
Tides and Currents Weather Stations Pressure Air Temp Water Temp Dewpoint Dewpoint Depression Visibility Wind Speed Wind Dir Waves Ship Positions

Fairchem Charger

Last reported at 2018-Oct-19 01:17 UTC. Time now 2018-Nov-17 19:53 UTC.
Position N 14°16' W 060°48'.
Warning: this ship's position is 29 days out of date.

Length 146 m; draft 9.8 m.

Type: Ship (hazmat cat B). MMSI: 538003481.

Date/timePositionNaut miles runAvg speedWind from/ knotsBaromVisibWave heightAir tempDewpointWater temp
2018-Oct-19 01:17N 14°16' W 060°48'312.1
2018-Oct-19 01:03N 14°16' W 060°51'112.1
2018-Oct-19 01:00N 14°16' W 060°52'612.0
2018-Oct-19 00:30N 14°15' W 060°58'512.0
2018-Oct-19 00:03N 14°15' W 061°03'112.2
2018-Oct-19 00:00N 14°15' W 061°04'  
2018-Oct-12 02:20N 29°50' W 089°60'310.5
2018-Oct-12 02:00N 29°53' W 089°57'3 5.0
2018-Oct-12 01:27N 29°55' W 089°57'512.3
2018-Oct-12 01:04N 29°57' W 090°02'110.8
2018-Oct-12 01:00N 29°57' W 090°02'5 9.6
2018-Oct-12 00:30N 29°54' W 090°07'4 8.1
2018-Oct-12 00:04N 29°57' W 090°10'113.4
2018-Oct-12 00:01N 29°56' W 090°11'610.8
2018-Oct-11 23:29N 29°58' W 090°17'1 0.0
2018-Oct-10 00:09N 29°58' W 090°16'1 9.9
2018-Oct-10 00:04N 29°58' W 090°15'110.0
2018-Oct-10 00:00N 29°58' W 090°14'4 7.5
2018-Oct-09 23:30N 29°56' W 090°11'3 5.8
2018-Oct-09 23:04N 29°55' W 090°08'111.1
2018-Oct-09 23:01N 29°55' W 090°07'4 8.5
2018-Oct-09 22:30N 29°57' W 090°04'3 7.2
2018-Oct-09 22:03N 29°56' W 089°60'0 8.9
2018-Oct-09 22:00N 29°56' W 089°60'  

Dump ship's entire track history